createdAt,value
2022-07-29T00:00:09.575Z,100146.72
2022-07-29T00:02:38.092Z,100133.59
2022-07-29T00:05:10.061Z,100141.34
2022-07-29T00:07:40.677Z,100134.97
2022-07-29T00:10:09.160Z,100144.56
2022-07-29T00:12:37.535Z,100134.09
2022-07-29T00:15:07.209Z,100136.06
2022-07-29T00:17:35.569Z,100133.97
2022-07-29T00:20:03.681Z,100129.88
2022-07-29T00:25:26.970Z,100128.66
2022-07-29T00:27:57.479Z,100129.28
2022-07-29T00:30:25.714Z,100120.16
2022-07-29T00:32:54.138Z,100121.50
2022-07-29T00:35:42.227Z,100106.38
2022-07-29T00:38:13.696Z,100104.13
2022-07-29T00:40:45.763Z,100107.72
2022-07-29T00:43:17.400Z,100100.69
2022-07-29T00:45:47.858Z,100105.50
2022-07-29T00:48:16.656Z,100106.97
2022-07-29T00:50:47.481Z,100102.06
2022-07-29T00:53:15.656Z,100099.47
2022-07-29T00:55:45.277Z,100093.91
2022-07-29T00:58:15.148Z,100088.38
2022-07-29T01:00:45.591Z,100080.16
2022-07-29T01:03:13.926Z,100073.19
2022-07-29T01:05:50.106Z,100082.38
2022-07-29T01:08:22.803Z,100085.06
2022-07-29T01:10:53.053Z,100090.34
2022-07-29T01:13:23.503Z,100085.69
2022-07-29T01:16:01.283Z,100076.81
2022-07-29T01:18:35.599Z,100067.66
2022-07-29T01:21:26.679Z,100069.16
2022-07-29T01:24:14.107Z,100075.66
2022-07-29T01:26:50.007Z,100075.91
2022-07-29T01:29:38.622Z,100071.59
2022-07-29T01:32:20.269Z,100064.72
2022-07-29T01:35:04.196Z,100074.47
2022-07-29T01:37:40.606Z,100063.25
2022-07-29T01:40:15.212Z,100066.34
2022-07-29T01:42:46.418Z,100061.28
2022-07-29T01:45:22.517Z,100051.81
2022-07-29T01:48:02.098Z,100050.06
2022-07-29T01:50:36.649Z,100052.41
2022-07-29T01:53:06.835Z,100046.63
2022-07-29T01:55:44.300Z,100045.16
2022-07-29T01:58:14.673Z,100048.72
2022-07-29T02:00:47.443Z,100044.91
2022-07-29T02:03:18.098Z,100040.69
2022-07-29T02:05:49.075Z,100048.22
2022-07-29T02:08:20.682Z,100046.47
2022-07-29T02:10:50.580Z,100051.03
2022-07-29T02:13:20.407Z,100037.25
2022-07-29T02:15:52.371Z,100042.78
2022-07-29T02:18:25.056Z,100043.75
2022-07-29T02:20:58.945Z,100047.44
2022-07-29T02:23:28.123Z,100055.69
2022-07-29T02:25:58.983Z,100047.06
2022-07-29T02:28:33.123Z,100044.59
2022-07-29T02:31:05.774Z,100046.06
2022-07-29T02:33:34.694Z,100044.72
2022-07-29T02:36:03.925Z,100048.00
2022-07-29T02:38:54.608Z,100049.81
2022-07-29T02:41:26.691Z,100050.69
2022-07-29T02:43:59.454Z,100054.59
2022-07-29T02:46:34.533Z,100049.47
2022-07-29T02:49:11.178Z,100048.09
2022-07-29T02:51:45.789Z,100042.69
2022-07-29T02:54:24.831Z,100043.88
2022-07-29T02:56:56.643Z,100045.84
2022-07-29T02:59:32.985Z,100044.25
2022-07-29T03:02:07.314Z,100043.94
2022-07-29T03:04:36.972Z,100045.41
2022-07-29T03:07:07.093Z,100040.59
2022-07-29T03:09:36.227Z,100043.63
2022-07-29T03:12:06.491Z,100041.28
2022-07-29T03:14:39.019Z,100038.16
2022-07-29T03:17:09.449Z,100042.53
2022-07-29T03:19:38.406Z,100036.47
2022-07-29T03:22:07.085Z,100044.59
2022-07-29T03:24:37.738Z,100041.25
2022-07-29T03:27:07.358Z,100032.31
2022-07-29T03:29:35.704Z,100043.44
2022-07-29T03:32:07.977Z,100042.06
2022-07-29T03:34:39.439Z,100050.06
2022-07-29T03:37:08.031Z,100042.56
2022-07-29T03:39:41.025Z,100042.56
2022-07-29T03:42:17.590Z,100035.97
2022-07-29T03:44:49.555Z,100049.84
2022-07-29T03:47:23.408Z,100044.44
2022-07-29T03:50:16.076Z,100031.66
2022-07-29T03:52:45.437Z,100048.31
2022-07-29T03:55:14.235Z,100044.97
2022-07-29T03:57:43.965Z,100043.47
2022-07-29T04:00:16.483Z,100050.91
2022-07-29T04:02:49.630Z,100047.06
2022-07-29T04:05:22.159Z,100049.00
2022-07-29T04:07:51.111Z,100048.56
2022-07-29T04:10:30.401Z,100036.81
2022-07-29T04:13:03.138Z,100057.25
2022-07-29T04:15:31.974Z,100055.72
2022-07-29T04:18:02.676Z,100054.09
2022-07-29T04:20:32.158Z,100055.19
2022-07-29T04:23:00.258Z,100053.72
2022-07-29T04:25:33.181Z,100059.31
2022-07-29T04:28:04.090Z,100065.47
2022-07-29T04:30:33.858Z,100051.97
2022-07-29T04:33:02.820Z,100061.69
2022-07-29T04:35:37.968Z,100063.53
2022-07-29T04:38:07.017Z,100061.59
2022-07-29T04:40:35.812Z,100068.63
2022-07-29T04:43:09.442Z,100068.28
2022-07-29T04:45:40.022Z,100066.97
2022-07-29T04:48:10.998Z,100063.19
2022-07-29T04:50:42.155Z,100066.63
2022-07-29T04:53:12.411Z,100058.22
2022-07-29T04:55:40.786Z,100062.09
2022-07-29T04:58:09.976Z,100060.78
2022-07-29T05:00:38.695Z,100053.19
2022-07-29T05:03:07.175Z,100065.06
2022-07-29T05:05:38.010Z,100061.56
2022-07-29T05:08:07.598Z,100066.06
2022-07-29T05:10:39.189Z,100065.03
2022-07-29T05:13:07.914Z,100064.63
2022-07-29T05:15:37.224Z,100062.13
2022-07-29T05:18:06.424Z,100050.88
2022-07-29T05:20:35.581Z,100071.75
2022-07-29T05:26:26.996Z,100072.53
2022-07-29T05:28:55.851Z,100068.59
2022-07-29T05:31:24.180Z,100075.56
2022-07-29T05:33:52.567Z,100074.38
2022-07-29T05:36:23.125Z,100082.28
2022-07-29T05:38:54.146Z,100074.50
2022-07-29T05:41:22.778Z,100077.13
2022-07-29T05:43:52.296Z,100082.41
2022-07-29T05:46:20.790Z,100083.19
2022-07-29T05:48:48.863Z,100094.28
2022-07-29T05:51:17.228Z,100089.91
2022-07-29T05:53:45.915Z,100086.06
2022-07-29T05:56:14.497Z,100099.34
2022-07-29T05:58:42.815Z,100101.97
2022-07-29T06:01:12.384Z,100088.69
2022-07-29T06:03:42.328Z,100104.38
2022-07-29T06:06:10.453Z,100100.66
2022-07-29T06:08:39.655Z,100095.25
2022-07-29T06:11:08.728Z,100104.88
2022-07-29T06:13:37.003Z,100106.06
2022-07-29T06:16:05.801Z,100109.34
2022-07-29T06:18:36.199Z,100104.25
2022-07-29T06:21:09.922Z,100103.06
2022-07-29T06:23:38.952Z,100112.06
2022-07-29T06:26:07.431Z,100103.78
2022-07-29T06:28:35.673Z,100114.63
2022-07-29T06:31:03.890Z,100108.84
2022-07-29T06:33:32.275Z,100106.34
2022-07-29T06:36:05.958Z,100113.41
2022-07-29T06:38:40.611Z,100112.41
2022-07-29T06:41:16.797Z,100119.31
2022-07-29T06:43:52.139Z,100114.34
2022-07-29T06:46:23.762Z,100111.50
2022-07-29T06:48:53.740Z,100113.06
2022-07-29T06:51:24.397Z,100115.69
2022-07-29T06:53:59.046Z,100107.94
2022-07-29T06:56:31.529Z,100116.16
2022-07-29T06:58:59.797Z,100123.81
2022-07-29T07:01:30.052Z,100124.41
2022-07-29T07:03:58.475Z,100131.81
2022-07-29T07:06:28.541Z,100139.31
2022-07-29T07:08:56.846Z,100142.97
2022-07-29T07:11:25.229Z,100146.38
2022-07-29T07:13:53.617Z,100146.16
2022-07-29T07:16:21.697Z,100155.06
2022-07-29T07:18:50.087Z,100150.75
2022-07-29T07:21:19.238Z,100150.50
2022-07-29T07:23:51.502Z,100155.97
2022-07-29T07:26:19.980Z,100155.81
2022-07-29T07:28:48.035Z,100150.91
2022-07-29T07:31:16.260Z,100152.38
2022-07-29T07:33:46.643Z,100154.72
2022-07-29T07:36:14.958Z,100155.13
2022-07-29T07:38:43.331Z,100154.09
2022-07-29T07:41:12.708Z,100151.28
2022-07-29T07:43:40.957Z,100150.97
2022-07-29T07:46:09.347Z,100147.63
2022-07-29T07:48:37.537Z,100149.41
2022-07-29T07:51:06.357Z,100148.63
2022-07-29T07:53:34.652Z,100145.28
2022-07-29T07:56:10.910Z,100144.59
2022-07-29T07:58:41.376Z,100147.94
2022-07-29T08:01:09.878Z,100141.72
2022-07-29T08:03:38.386Z,100139.31
2022-07-29T08:06:07.095Z,100148.88
2022-07-29T08:08:35.150Z,100146.44
2022-07-29T08:11:09.856Z,100151.25
2022-07-29T08:13:39.371Z,100142.41
2022-07-29T08:16:16.883Z,100145.81
2022-07-29T08:18:46.568Z,100148.56
2022-07-29T08:21:15.579Z,100157.34
2022-07-29T08:23:59.671Z,100154.41
2022-07-29T08:26:29.044Z,100165.59
2022-07-29T08:28:57.528Z,100162.72
2022-07-29T08:31:29.080Z,100156.63
2022-07-29T08:34:00.803Z,100157.91
2022-07-29T08:36:31.267Z,100160.41
2022-07-29T08:39:00.093Z,100165.38
2022-07-29T08:41:28.453Z,100161.47
2022-07-29T08:43:57.016Z,100165.41
2022-07-29T08:46:29.560Z,100164.53
2022-07-29T08:48:57.686Z,100158.53
2022-07-29T08:51:28.999Z,100167.03
2022-07-29T08:54:02.704Z,100159.31
2022-07-29T08:56:31.882Z,100174.91
2022-07-29T08:59:01.002Z,100166.56
2022-07-29T09:01:42.660Z,100176.91
2022-07-29T09:04:16.743Z,100170.16
2022-07-29T09:06:48.182Z,100171.63
2022-07-29T09:09:19.184Z,100166.34
2022-07-29T09:11:49.806Z,100160.06
2022-07-29T09:14:18.083Z,100171.59
2022-07-29T09:16:54.250Z,100167.53
2022-07-29T09:19:31.309Z,100166.50
2022-07-29T09:22:04.152Z,100174.25
2022-07-29T09:24:41.718Z,100160.34
2022-07-29T09:27:22.124Z,100159.28
2022-07-29T09:29:58.301Z,100170.81
2022-07-29T09:32:29.056Z,100160.63
2022-07-29T09:35:20.628Z,100166.69
2022-07-29T09:37:51.150Z,100165.38
2022-07-29T09:40:20.913Z,100173.75
2022-07-29T09:42:49.642Z,100170.53
2022-07-29T09:45:29.283Z,100165.78
2022-07-29T09:48:01.508Z,100169.97
2022-07-29T09:50:41.063Z,100164.63
2022-07-29T09:53:11.178Z,100160.81
2022-07-29T09:55:50.618Z,100164.75
2022-07-29T09:58:21.432Z,100162.06
2022-07-29T10:00:50.700Z,100160.19
2022-07-29T10:03:23.310Z,100154.56
2022-07-29T10:06:07.024Z,100159.47
2022-07-29T10:08:35.637Z,100150.41
2022-07-29T10:11:14.522Z,100156.06
2022-07-29T10:13:46.678Z,100154.53
2022-07-29T10:16:16.203Z,100151.31
2022-07-29T10:18:47.896Z,100155.34
2022-07-29T10:21:35.263Z,100152.59
2022-07-29T10:27:27.037Z,100145.34
2022-07-29T10:29:56.305Z,100146.22
2022-07-29T10:32:41.607Z,100143.00
2022-07-29T10:35:24.209Z,100135.84
2022-07-29T10:38:16.537Z,100137.25
2022-07-29T10:41:12.598Z,100138.91
2022-07-29T10:43:51.187Z,100132.91
2022-07-29T10:46:25.587Z,100142.84
2022-07-29T10:49:10.015Z,100137.94
2022-07-29T10:52:10.616Z,100137.22
2022-07-29T10:54:54.674Z,100141.03
2022-07-29T10:57:54.151Z,100134.38
2022-07-29T11:00:32.473Z,100121.06
2022-07-29T11:03:04.689Z,100133.47
2022-07-29T11:05:56.315Z,100129.31
2022-07-29T11:08:31.923Z,100122.41
2022-07-29T11:11:38.100Z,100128.31
2022-07-29T11:17:06.556Z,100121.31
2022-07-29T11:19:37.346Z,100115.53
2022-07-29T11:22:10.407Z,100114.09
2022-07-29T11:24:50.079Z,100118.47
2022-07-29T11:27:21.027Z,100110.69
2022-07-29T11:29:56.773Z,100114.81
2022-07-29T11:32:29.507Z,100110.38
2022-07-29T11:35:18.666Z,100115.66
2022-07-29T11:37:52.821Z,100112.38
2022-07-29T11:40:26.057Z,100108.97
2022-07-29T11:42:55.016Z,100110.03
2022-07-29T11:45:43.082Z,100119.44
2022-07-29T11:48:31.957Z,100113.38
2022-07-29T11:51:11.886Z,100109.91
2022-07-29T11:53:41.838Z,100115.25
2022-07-29T11:56:11.339Z,100108.13
2022-07-29T11:58:47.594Z,100103.41
2022-07-29T12:01:19.569Z,100101.72
2022-07-29T12:03:50.993Z,100101.47
2022-07-29T12:06:21.083Z,100089.84
2022-07-29T12:08:49.523Z,100092.00
2022-07-29T12:11:20.466Z,100081.56
2022-07-29T12:13:50.786Z,100089.38
2022-07-29T12:16:27.980Z,100089.63
2022-07-29T12:19:02.347Z,100077.50
2022-07-29T12:21:31.411Z,100088.56
2022-07-29T12:24:09.188Z,100076.25
2022-07-29T12:26:40.491Z,100080.84
2022-07-29T12:29:20.214Z,100073.84
2022-07-29T12:32:01.953Z,100085.38
2022-07-29T12:34:32.286Z,100085.81
2022-07-29T12:37:00.594Z,100088.34
2022-07-29T12:39:29.279Z,100082.03
2022-07-29T12:42:04.794Z,100069.78
2022-07-29T12:44:46.704Z,100062.97
2022-07-29T12:47:14.954Z,100047.31
2022-07-29T12:49:44.929Z,100067.69
2022-07-29T12:52:27.149Z,100081.31
2022-07-29T12:54:55.461Z,100071.38
2022-07-29T12:57:26.696Z,100065.75
2022-07-29T13:00:06.728Z,100056.81
2022-07-29T13:02:35.362Z,100057.03
2022-07-29T13:05:09.418Z,100051.22
2022-07-29T13:07:53.944Z,100047.59
2022-07-29T13:10:25.039Z,100049.75
2022-07-29T13:13:08.999Z,100050.06
2022-07-29T13:15:38.250Z,100046.38
2022-07-29T13:18:07.194Z,100050.00
2022-07-29T13:20:37.232Z,100048.56
2022-07-29T13:23:07.663Z,100044.53
2022-07-29T13:25:41.745Z,100056.84
2022-07-29T13:28:09.723Z,100049.16
2022-07-29T13:30:38.614Z,100054.50
2022-07-29T13:33:13.022Z,100046.22
2022-07-29T13:35:42.270Z,100048.56
2022-07-29T13:38:10.608Z,100043.03
2022-07-29T13:40:38.697Z,100043.03
2022-07-29T13:43:07.032Z,100051.75
2022-07-29T13:45:35.189Z,100055.78
2022-07-29T13:48:03.783Z,100049.19
2022-07-29T13:50:31.865Z,100040.91
2022-07-29T13:53:04.135Z,100048.13
2022-07-29T13:55:37.139Z,100040.75
2022-07-29T13:58:07.843Z,100038.50
2022-07-29T14:00:35.931Z,100034.22
2022-07-29T14:03:07.543Z,100032.06
2022-07-29T14:05:35.623Z,100032.56
2022-07-29T14:08:07.805Z,100038.75
2022-07-29T14:10:38.093Z,100036.00
2022-07-29T14:13:06.419Z,100031.00
2022-07-29T14:15:52.926Z,100038.88
2022-07-29T14:18:23.676Z,100041.19
2022-07-29T14:20:52.286Z,100037.47
2022-07-29T14:23:22.001Z,100043.84
2022-07-29T14:25:52.360Z,100030.38
2022-07-29T14:28:21.739Z,100035.19
2022-07-29T14:30:50.056Z,100034.53
2022-07-29T14:33:18.434Z,100036.25
2022-07-29T14:35:46.708Z,100037.19
2022-07-29T14:38:14.978Z,100037.38
2022-07-29T14:40:44.419Z,100032.69
2022-07-29T14:43:12.794Z,100026.88
2022-07-29T14:45:40.877Z,100028.72
2022-07-29T14:48:09.433Z,100021.22
2022-07-29T14:50:37.698Z,100030.63
2022-07-29T14:53:08.281Z,100036.31
2022-07-29T14:55:36.592Z,100032.19
2022-07-29T14:58:12.080Z,100024.50
2022-07-29T15:00:43.202Z,100026.63
2022-07-29T15:03:11.862Z,100028.66
2022-07-29T15:05:40.335Z,100032.91
2022-07-29T15:08:09.655Z,100034.63
2022-07-29T15:10:40.245Z,100013.97
2022-07-29T15:13:12.195Z,100033.84
2022-07-29T15:15:40.988Z,100035.06
2022-07-29T15:18:10.031Z,100029.59
2022-07-29T15:20:40.442Z,100023.31
2022-07-29T15:23:10.365Z,100025.16
2022-07-29T15:28:27.354Z,100029.00
2022-07-29T15:30:57.938Z,100020.50
2022-07-29T15:33:25.928Z,100010.75
2022-07-29T15:35:54.336Z,100031.94
2022-07-29T15:38:28.617Z,100029.25
2022-07-29T15:40:57.329Z,100026.94
2022-07-29T15:43:26.069Z,100028.16
2022-07-29T15:46:13.406Z,100036.25
2022-07-29T15:48:44.074Z,100027.34
2022-07-29T15:51:14.607Z,100034.63
2022-07-29T15:53:42.589Z,100030.88
2022-07-29T15:56:13.294Z,100027.25
2022-07-29T15:58:44.771Z,100027.63
2022-07-29T16:01:19.560Z,100021.50
2022-07-29T16:03:47.663Z,100018.06
2022-07-29T16:06:16.251Z,100022.34
2022-07-29T16:08:44.689Z,100016.47
2022-07-29T16:11:13.171Z,100017.16
2022-07-29T16:13:41.211Z,100004.31
2022-07-29T16:16:09.865Z,100015.09
2022-07-29T16:18:39.324Z,100002.28
2022-07-29T16:21:07.814Z,100013.97
2022-07-29T16:23:36.197Z,100015.44
2022-07-29T16:26:05.600Z,100008.13
2022-07-29T16:28:33.822Z,100015.22
2022-07-29T16:31:04.508Z,100008.84
2022-07-29T16:33:54.752Z,100011.63
2022-07-29T16:36:24.677Z,100025.53
2022-07-29T16:38:52.858Z,100018.47
2022-07-29T16:41:21.283Z,100022.34
2022-07-29T16:43:51.686Z,100008.06
2022-07-29T16:46:21.677Z,100018.63
2022-07-29T16:48:54.504Z,100015.44
2022-07-29T16:51:24.852Z,100021.72
2022-07-29T16:53:52.879Z,100019.00
2022-07-29T16:56:21.382Z,100017.84
2022-07-29T16:58:51.940Z,100024.00
2022-07-29T17:01:20.393Z,100025.53
2022-07-29T17:04:05.639Z,100026.81
2022-07-29T17:06:35.976Z,100033.38
2022-07-29T17:09:05.653Z,100029.97
2022-07-29T17:11:52.942Z,100038.19
2022-07-29T17:14:27.168Z,100036.31
2022-07-29T17:17:01.245Z,100035.75
2022-07-29T17:19:31.687Z,100037.41
2022-07-29T17:22:10.439Z,100040.06
2022-07-29T17:24:41.264Z,100032.38
2022-07-29T17:27:11.960Z,100039.25
2022-07-29T17:29:40.698Z,100045.44
2022-07-29T17:32:10.328Z,100050.25
2022-07-29T17:34:39.059Z,100052.81
2022-07-29T17:37:10.808Z,100066.22
2022-07-29T17:39:40.846Z,100066.56
2022-07-29T17:42:12.857Z,100067.78
2022-07-29T17:44:41.653Z,100078.19
2022-07-29T17:47:15.814Z,100078.88
2022-07-29T17:49:45.366Z,100080.06
2022-07-29T17:52:16.036Z,100069.44
2022-07-29T17:54:44.134Z,100077.97
2022-07-29T17:57:12.217Z,100086.53
2022-07-29T17:59:40.271Z,100091.09
2022-07-29T18:02:10.148Z,100097.88
2022-07-29T18:04:38.334Z,100106.06
2022-07-29T18:07:06.879Z,100113.66
2022-07-29T18:09:40.074Z,100113.22
2022-07-29T18:12:09.495Z,100114.66
2022-07-29T18:14:37.531Z,100116.03
2022-07-29T18:17:08.081Z,100120.97
2022-07-29T18:19:38.645Z,100128.72
2022-07-29T18:22:11.460Z,100126.75
2022-07-29T18:24:40.959Z,100131.66
2022-07-29T18:27:12.149Z,100140.47
2022-07-29T18:29:42.443Z,100140.78
2022-07-29T18:32:13.091Z,100143.97
2022-07-29T18:34:41.142Z,100157.06
2022-07-29T18:37:09.246Z,100149.03
2022-07-29T18:39:37.425Z,100155.66
2022-07-29T18:42:07.876Z,100154.38
2022-07-29T18:44:43.595Z,100151.97
2022-07-29T18:47:15.102Z,100149.00
2022-07-29T18:49:43.258Z,100155.78
2022-07-29T18:52:12.573Z,100171.19
2022-07-29T18:54:43.084Z,100162.47
2022-07-29T18:57:55.643Z,100176.53
2022-07-29T19:00:00.935Z,100159.63
2022-07-29T19:02:29.393Z,100165.38
2022-07-29T19:04:57.676Z,100168.88
2022-07-29T19:07:26.915Z,100173.91
2022-07-29T19:09:55.266Z,100170.91
2022-07-29T19:12:24.619Z,100180.97
2022-07-29T19:14:52.973Z,100179.41
2022-07-29T19:17:21.158Z,100175.56
2022-07-29T19:19:53.759Z,100189.78
2022-07-29T19:22:24.698Z,100195.38
2022-07-29T19:24:53.292Z,100190.06
2022-07-29T19:27:21.461Z,100200.38
2022-07-29T19:29:51.297Z,100205.59
2022-07-29T19:32:25.404Z,100202.84
2022-07-29T19:35:22.357Z,100197.38
2022-07-29T19:37:50.991Z,100215.19
2022-07-29T19:40:19.396Z,100218.19
2022-07-29T19:42:51.173Z,100223.34
2022-07-29T19:45:20.811Z,100233.66
2022-07-29T19:47:50.333Z,100232.81
2022-07-29T19:50:19.499Z,100248.00
2022-07-29T19:52:48.133Z,100249.13
2022-07-29T19:55:18.765Z,100252.00
2022-07-29T19:57:47.620Z,100267.03
2022-07-29T20:00:17.326Z,100282.78
2022-07-29T20:02:51.748Z,100280.16
2022-07-29T20:05:21.974Z,100290.13
2022-07-29T20:07:56.471Z,100282.47
2022-07-29T20:10:25.360Z,100286.41
2022-07-29T20:12:56.100Z,100281.78
2022-07-29T20:15:25.724Z,100284.03
2022-07-29T20:17:57.438Z,100295.25
2022-07-29T20:20:26.320Z,100294.28
2022-07-29T20:22:55.004Z,100297.53
2022-07-29T20:25:23.591Z,100285.38
2022-07-29T20:29:27.751Z,100288.25
2022-07-29T20:31:56.828Z,100281.72
2022-07-29T20:34:27.271Z,100289.56
2022-07-29T20:36:58.760Z,100296.13
2022-07-29T20:39:28.042Z,100299.56
2022-07-29T20:41:56.216Z,100299.59
2022-07-29T20:44:24.889Z,100297.78
2022-07-29T20:46:54.230Z,100292.97
2022-07-29T20:49:22.638Z,100299.66
2022-07-29T20:51:50.735Z,100300.78
2022-07-29T20:54:19.081Z,100293.88
2022-07-29T20:56:47.467Z,100298.44
2022-07-29T20:59:17.665Z,100293.88
2022-07-29T21:04:18.714Z,100296.25
2022-07-29T21:06:47.207Z,100303.03
2022-07-29T21:09:17.933Z,100307.25
2022-07-29T21:11:48.878Z,100302.41
2022-07-29T21:14:27.658Z,100299.69
2022-07-29T21:16:56.073Z,100307.09
2022-07-29T21:19:26.235Z,100306.50
2022-07-29T21:21:54.579Z,100310.81
2022-07-29T21:24:22.990Z,100306.50
2022-07-29T21:27:18.250Z,100307.84
2022-07-29T21:29:38.129Z,100306.09
2022-07-29T21:32:07.057Z,100312.03
2022-07-29T21:34:37.060Z,100308.09
2022-07-29T21:37:05.459Z,100301.31
2022-07-29T21:39:35.200Z,100307.22
2022-07-29T21:42:03.241Z,100312.75
2022-07-29T21:44:31.498Z,100320.78
2022-07-29T21:47:00.006Z,100313.75
2022-07-29T21:49:28.288Z,100317.69
2022-07-29T21:51:57.816Z,100329.19
2022-07-29T21:54:26.214Z,100323.63
2022-07-29T21:56:56.339Z,100334.84
2022-07-29T21:59:26.276Z,100337.81
2022-07-29T22:01:54.528Z,100340.41
2022-07-29T22:04:23.336Z,100336.09
2022-07-29T22:06:51.828Z,100339.91
2022-07-29T22:09:21.178Z,100342.38
2022-07-29T22:11:52.231Z,100348.81
2022-07-29T22:14:20.811Z,100346.97
2022-07-29T22:16:51.110Z,100353.59
2022-07-29T22:19:19.548Z,100341.78
2022-07-29T22:21:47.888Z,100348.91
2022-07-29T22:24:17.128Z,100348.44
2022-07-29T22:26:46.858Z,100352.00
2022-07-29T22:29:17.540Z,100354.22
2022-07-29T22:31:46.507Z,100345.84
2022-07-29T22:34:14.759Z,100343.38
2022-07-29T22:36:45.084Z,100356.31
2022-07-29T22:39:15.677Z,100369.88
2022-07-29T22:41:44.479Z,100365.66
2022-07-29T22:44:13.851Z,100365.06
2022-07-29T22:46:42.341Z,100359.25
2022-07-29T22:49:10.664Z,100357.50
2022-07-29T22:51:38.916Z,100352.28
2022-07-29T22:54:07.409Z,100366.50
2022-07-29T22:56:37.791Z,100367.13
2022-07-29T22:59:06.090Z,100371.03
2022-07-29T23:01:38.379Z,100376.19
2022-07-29T23:04:07.151Z,100375.09
2022-07-29T23:06:35.856Z,100372.13
2022-07-29T23:09:04.375Z,100364.16
2022-07-29T23:11:32.795Z,100345.31
2022-07-29T23:14:03.411Z,100369.16
2022-07-29T23:16:31.685Z,100372.09
2022-07-29T23:19:02.625Z,100368.97
2022-07-29T23:21:31.394Z,100387.13
2022-07-29T23:23:59.570Z,100375.34
2022-07-29T23:26:30.180Z,100381.66
2022-07-29T23:28:58.507Z,100372.13
2022-07-29T23:31:26.885Z,100370.00
2022-07-29T23:33:55.066Z,100372.72
2022-07-29T23:36:27.145Z,100367.97
2022-07-29T23:38:57.388Z,100372.00
2022-07-29T23:41:30.247Z,100377.03
2022-07-29T23:43:59.079Z,100363.94
2022-07-29T23:46:27.254Z,100376.16
2022-07-29T23:48:58.046Z,100366.19
2022-07-29T23:51:30.076Z,100376.03
2022-07-29T23:54:00.932Z,100377.50
2022-07-29T23:56:29.022Z,100368.72
2022-07-29T23:58:57.264Z,100375.09
